sensor_id;sensor_type;location;lat;lon;timestamp;P1;durP1;ratioP1;P2;durP2;ratioP2
68457;SDS011;65384;52.016;5.428;2022-11-21T00:00:53;49.47;;;17.65;;
68457;SDS011;65384;52.016;5.428;2022-11-21T00:03:19;50.22;;;18.90;;
68457;SDS011;65384;52.016;5.428;2022-11-21T00:05:46;52.35;;;17.95;;
68457;SDS011;65384;52.016;5.428;2022-11-21T00:08:13;51.78;;;18.42;;
68457;SDS011;65384;52.016;5.428;2022-11-21T00:10:39;49.25;;;18.35;;
68457;SDS011;65384;52.016;5.428;2022-11-21T00:13:05;52.45;;;18.92;;
68457;SDS011;65384;52.016;5.428;2022-11-21T00:15:32;59.58;;;20.13;;
68457;SDS011;65384;52.016;5.428;2022-11-21T00:18:01;52.63;;;17.95;;
68457;SDS011;65384;52.016;5.428;2022-11-21T00:20:27;48.65;;;18.38;;
68457;SDS011;65384;52.016;5.428;2022-11-21T00:22:53;48.97;;;16.98;;
68457;SDS011;65384;52.016;5.428;2022-11-21T00:25:18;55.20;;;19.25;;
68457;SDS011;65384;52.016;5.428;2022-11-21T00:27:43;53.15;;;18.45;;
68457;SDS011;65384;52.016;5.428;2022-11-21T00:30:09;50.58;;;18.13;;
68457;SDS011;65384;52.016;5.428;2022-11-21T00:32:35;49.92;;;18.42;;
68457;SDS011;65384;52.016;5.428;2022-11-21T00:35:00;57.30;;;18.83;;
68457;SDS011;65384;52.016;5.428;2022-11-21T00:37:26;52.15;;;18.83;;
68457;SDS011;65384;52.016;5.428;2022-11-21T00:39:51;52.17;;;18.73;;
68457;SDS011;65384;52.016;5.428;2022-11-21T00:42:17;52.53;;;18.38;;
68457;SDS011;65384;52.016;5.428;2022-11-21T00:44:42;56.80;;;18.80;;
68457;SDS011;65384;52.016;5.428;2022-11-21T00:47:07;57.78;;;19.85;;
68457;SDS011;65384;52.016;5.428;2022-11-21T00:49:33;59.92;;;20.00;;
68457;SDS011;65384;52.016;5.428;2022-11-21T00:51:58;58.17;;;19.23;;
68457;SDS011;65384;52.016;5.428;2022-11-21T00:54:23;57.28;;;18.58;;
68457;SDS011;65384;52.016;5.428;2022-11-21T00:56:49;52.08;;;19.55;;
68457;SDS011;65384;52.016;5.428;2022-11-21T00:59:14;58.13;;;19.75;;
68457;SDS011;65384;52.016;5.428;2022-11-21T01:01:39;60.35;;;19.08;;
68457;SDS011;65384;52.016;5.428;2022-11-21T01:04:05;52.75;;;18.77;;
68457;SDS011;65384;52.016;5.428;2022-11-21T01:06:30;52.85;;;19.25;;
68457;SDS011;65384;52.016;5.428;2022-11-21T01:08:55;53.85;;;18.58;;
68457;SDS011;65384;52.016;5.428;2022-11-21T01:11:21;51.67;;;18.55;;
68457;SDS011;65384;52.016;5.428;2022-11-21T01:13:47;51.10;;;18.40;;
68457;SDS011;65384;52.016;5.428;2022-11-21T01:16:17;52.22;;;18.35;;
68457;SDS011;65384;52.016;5.428;2022-11-21T01:18:43;55.17;;;18.45;;
68457;SDS011;65384;52.016;5.428;2022-11-21T01:21:30;54.58;;;19.25;;
68457;SDS011;65384;52.016;5.428;2022-11-21T01:23:57;51.10;;;17.98;;
68457;SDS011;65384;52.016;5.428;2022-11-21T01:26:24;57.65;;;18.95;;
68457;SDS011;65384;52.016;5.428;2022-11-21T01:28:50;59.53;;;19.17;;
68457;SDS011;65384;52.016;5.428;2022-11-21T01:31:19;52.20;;;18.33;;
68457;SDS011;65384;52.016;5.428;2022-11-21T01:33:49;54.63;;;18.15;;
68457;SDS011;65384;52.016;5.428;2022-11-21T01:36:21;58.80;;;20.17;;
68457;SDS011;65384;52.016;5.428;2022-11-21T01:38:49;58.53;;;19.45;;
68457;SDS011;65384;52.016;5.428;2022-11-21T01:41:17;50.53;;;18.35;;
68457;SDS011;65384;52.016;5.428;2022-11-21T01:43:46;60.15;;;18.67;;
68457;SDS011;65384;52.016;5.428;2022-11-21T01:46:16;60.88;;;18.52;;
68457;SDS011;65384;52.016;5.428;2022-11-21T01:48:47;53.65;;;17.27;;
68457;SDS011;65384;52.016;5.428;2022-11-21T01:51:38;69.25;;;17.88;;
68457;SDS011;65384;52.016;5.428;2022-11-21T01:56:42;47.85;;;16.42;;
68457;SDS011;65384;52.016;5.428;2022-11-21T01:59:31;49.40;;;17.43;;
68457;SDS011;65384;52.016;5.428;2022-11-21T02:01:59;48.22;;;16.25;;
68457;SDS011;65384;52.016;5.428;2022-11-21T02:04:26;52.28;;;17.08;;
68457;SDS011;65384;52.016;5.428;2022-11-21T02:06:53;51.80;;;16.98;;
68457;SDS011;65384;52.016;5.428;2022-11-21T02:09:18;53.28;;;16.95;;
68457;SDS011;65384;52.016;5.428;2022-11-21T02:11:46;55.00;;;17.17;;
68457;SDS011;65384;52.016;5.428;2022-11-21T02:14:13;50.67;;;16.90;;
68457;SDS011;65384;52.016;5.428;2022-11-21T02:16:39;52.42;;;16.60;;
68457;SDS011;65384;52.016;5.428;2022-11-21T02:19:05;58.20;;;17.98;;
68457;SDS011;65384;52.016;5.428;2022-11-21T02:21:41;52.90;;;16.40;;
68457;SDS011;65384;52.016;5.428;2022-11-21T02:24:31;54.20;;;16.42;;
68457;SDS011;65384;52.016;5.428;2022-11-21T02:27:01;53.35;;;16.30;;
68457;SDS011;65384;52.016;5.428;2022-11-21T02:29:27;54.13;;;16.83;;
68457;SDS011;65384;52.016;5.428;2022-11-21T02:31:53;61.60;;;16.70;;
68457;SDS011;65384;52.016;5.428;2022-11-21T02:34:18;52.72;;;16.30;;
68457;SDS011;65384;52.016;5.428;2022-11-21T02:36:47;55.25;;;15.75;;
68457;SDS011;65384;52.016;5.428;2022-11-21T02:39:20;54.53;;;14.70;;
68457;SDS011;65384;52.016;5.428;2022-11-21T02:42:11;42.78;;;13.98;;
68457;SDS011;65384;52.016;5.428;2022-11-21T02:44:42;48.63;;;14.90;;
68457;SDS011;65384;52.016;5.428;2022-11-21T02:47:18;43.63;;;13.70;;
68457;SDS011;65384;52.016;5.428;2022-11-21T02:49:48;46.60;;;13.80;;
68457;SDS011;65384;52.016;5.428;2022-11-21T02:52:20;54.70;;;13.77;;
68457;SDS011;65384;52.016;5.428;2022-11-21T02:54:45;52.92;;;14.23;;
68457;SDS011;65384;52.016;5.428;2022-11-21T02:57:10;48.55;;;14.38;;
68457;SDS011;65384;52.016;5.428;2022-11-21T02:59:35;45.67;;;13.52;;
68457;SDS011;65384;52.016;5.428;2022-11-21T03:02:01;44.25;;;13.98;;
68457;SDS011;65384;52.016;5.428;2022-11-21T03:04:26;62.33;;;14.65;;
68457;SDS011;65384;52.016;5.428;2022-11-21T03:06:52;79.57;;;15.30;;
68457;SDS011;65384;52.016;5.428;2022-11-21T03:09:18;65.72;;;14.95;;
68457;SDS011;65384;52.016;5.428;2022-11-21T03:11:43;98.40;;;15.00;;
68457;SDS011;65384;52.016;5.428;2022-11-21T03:14:08;85.57;;;15.43;;
68457;SDS011;65384;52.016;5.428;2022-11-21T03:16:34;69.80;;;14.90;;
68457;SDS011;65384;52.016;5.428;2022-11-21T03:18:59;113.55;;;14.32;;
68457;SDS011;65384;52.016;5.428;2022-11-21T03:21:25;147.27;;;15.65;;
68457;SDS011;65384;52.016;5.428;2022-11-21T03:23:50;93.63;;;14.50;;
68457;SDS011;65384;52.016;5.428;2022-11-21T03:26:15;88.35;;;13.20;;
68457;SDS011;65384;52.016;5.428;2022-11-21T03:28:41;64.22;;;14.20;;
68457;SDS011;65384;52.016;5.428;2022-11-21T03:31:07;108.07;;;15.20;;
68457;SDS011;65384;52.016;5.428;2022-11-21T03:33:32;136.57;;;15.02;;
68457;SDS011;65384;52.016;5.428;2022-11-21T03:35:57;45.78;;;13.05;;
68457;SDS011;65384;52.016;5.428;2022-11-21T03:38:22;106.00;;;13.05;;
68457;SDS011;65384;52.016;5.428;2022-11-21T03:40:48;157.02;;;13.00;;
68457;SDS011;65384;52.016;5.428;2022-11-21T03:43:13;204.55;;;15.38;;
68457;SDS011;65384;52.016;5.428;2022-11-21T03:45:38;124.32;;;14.45;;
68457;SDS011;65384;52.016;5.428;2022-11-21T03:48:04;133.90;;;15.07;;
68457;SDS011;65384;52.016;5.428;2022-11-21T03:50:29;170.43;;;15.68;;
68457;SDS011;65384;52.016;5.428;2022-11-21T03:52:55;192.57;;;15.40;;
68457;SDS011;65384;52.016;5.428;2022-11-21T03:55:20;167.80;;;15.30;;
68457;SDS011;65384;52.016;5.428;2022-11-21T03:57:45;168.32;;;14.95;;
68457;SDS011;65384;52.016;5.428;2022-11-21T04:00:11;128.88;;;14.93;;
68457;SDS011;65384;52.016;5.428;2022-11-21T04:02:37;179.65;;;15.68;;
68457;SDS011;65384;52.016;5.428;2022-11-21T04:05:03;121.32;;;15.27;;
68457;SDS011;65384;52.016;5.428;2022-11-21T04:07:28;255.95;;;17.77;;
68457;SDS011;65384;52.016;5.428;2022-11-21T04:09:54;173.73;;;16.25;;
68457;SDS011;65384;52.016;5.428;2022-11-21T04:12:19;119.22;;;14.75;;
68457;SDS011;65384;52.016;5.428;2022-11-21T04:14:44;101.78;;;15.35;;
68457;SDS011;65384;52.016;5.428;2022-11-21T04:17:10;138.20;;;14.50;;
68457;SDS011;65384;52.016;5.428;2022-11-21T04:19:35;119.03;;;15.32;;
68457;SDS011;65384;52.016;5.428;2022-11-21T04:22:00;79.88;;;15.35;;
68457;SDS011;65384;52.016;5.428;2022-11-21T04:24:25;207.40;;;17.52;;
68457;SDS011;65384;52.016;5.428;2022-11-21T04:26:52;186.07;;;16.73;;
68457;SDS011;65384;52.016;5.428;2022-11-21T04:29:19;176.98;;;16.17;;
68457;SDS011;65384;52.016;5.428;2022-11-21T04:31:44;81.72;;;14.63;;
68457;SDS011;65384;52.016;5.428;2022-11-21T04:34:09;108.20;;;14.68;;
68457;SDS011;65384;52.016;5.428;2022-11-21T04:36:35;151.52;;;16.25;;
68457;SDS011;65384;52.016;5.428;2022-11-21T04:39:00;131.27;;;16.05;;
68457;SDS011;65384;52.016;5.428;2022-11-21T04:41:26;97.13;;;14.27;;
68457;SDS011;65384;52.016;5.428;2022-11-21T04:43:51;128.60;;;12.80;;
68457;SDS011;65384;52.016;5.428;2022-11-21T04:46:17;204.88;;;15.68;;
68457;SDS011;65384;52.016;5.428;2022-11-21T04:48:42;159.30;;;15.23;;
68457;SDS011;65384;52.016;5.428;2022-11-21T04:51:07;139.85;;;13.88;;
68457;SDS011;65384;52.016;5.428;2022-11-21T04:53:33;176.98;;;15.10;;
68457;SDS011;65384;52.016;5.428;2022-11-21T04:55:59;144.20;;;14.25;;
68457;SDS011;65384;52.016;5.428;2022-11-21T04:58:28;161.10;;;15.77;;
68457;SDS011;65384;52.016;5.428;2022-11-21T05:00:53;111.80;;;15.15;;
68457;SDS011;65384;52.016;5.428;2022-11-21T05:03:18;163.18;;;15.05;;
68457;SDS011;65384;52.016;5.428;2022-11-21T05:05:43;159.85;;;15.43;;
68457;SDS011;65384;52.016;5.428;2022-11-21T05:08:09;245.48;;;17.90;;
68457;SDS011;65384;52.016;5.428;2022-11-21T05:10:34;152.65;;;15.65;;
68457;SDS011;65384;52.016;5.428;2022-11-21T05:13:19;147.20;;;15.02;;
68457;SDS011;65384;52.016;5.428;2022-11-21T05:15:45;171.05;;;15.75;;
68457;SDS011;65384;52.016;5.428;2022-11-21T05:18:11;142.38;;;14.98;;
68457;SDS011;65384;52.016;5.428;2022-11-21T05:20:36;104.30;;;13.27;;
68457;SDS011;65384;52.016;5.428;2022-11-21T05:23:02;136.90;;;15.18;;
68457;SDS011;65384;52.016;5.428;2022-11-21T05:25:27;178.05;;;16.67;;
68457;SDS011;65384;52.016;5.428;2022-11-21T05:27:55;95.63;;;13.88;;
68457;SDS011;65384;52.016;5.428;2022-11-21T05:30:21;115.07;;;16.02;;
68457;SDS011;65384;52.016;5.428;2022-11-21T05:32:46;142.85;;;15.88;;
68457;SDS011;65384;52.016;5.428;2022-11-21T05:35:11;99.78;;;14.90;;
68457;SDS011;65384;52.016;5.428;2022-11-21T05:37:37;101.72;;;15.95;;
68457;SDS011;65384;52.016;5.428;2022-11-21T05:40:02;181.73;;;18.17;;
68457;SDS011;65384;52.016;5.428;2022-11-21T05:42:28;140.50;;;16.02;;
68457;SDS011;65384;52.016;5.428;2022-11-21T05:45:12;99.88;;;16.35;;
68457;SDS011;65384;52.016;5.428;2022-11-21T05:47:37;199.48;;;17.73;;
68457;SDS011;65384;52.016;5.428;2022-11-21T05:50:05;182.38;;;16.67;;
68457;SDS011;65384;52.016;5.428;2022-11-21T05:52:31;201.80;;;17.77;;
68457;SDS011;65384;52.016;5.428;2022-11-21T05:54:56;171.20;;;15.93;;
68457;SDS011;65384;52.016;5.428;2022-11-21T05:57:21;183.60;;;16.33;;
68457;SDS011;65384;52.016;5.428;2022-11-21T05:59:47;190.82;;;17.55;;
68457;SDS011;65384;52.016;5.428;2022-11-21T06:02:12;114.22;;;13.65;;
68457;SDS011;65384;52.016;5.428;2022-11-21T06:04:56;126.63;;;15.07;;
68457;SDS011;65384;52.016;5.428;2022-11-21T06:07:21;131.10;;;16.10;;
68457;SDS011;65384;52.016;5.428;2022-11-21T06:09:46;160.05;;;15.40;;
68457;SDS011;65384;52.016;5.428;2022-11-21T06:12:12;203.35;;;16.45;;
68457;SDS011;65384;52.016;5.428;2022-11-21T06:14:37;251.05;;;18.92;;
68457;SDS011;65384;52.016;5.428;2022-11-21T06:17:02;130.57;;;14.98;;
68457;SDS011;65384;52.016;5.428;2022-11-21T06:19:27;61.30;;;14.50;;
68457;SDS011;65384;52.016;5.428;2022-11-21T06:21:53;69.25;;;14.65;;
68457;SDS011;65384;52.016;5.428;2022-11-21T06:24:18;80.53;;;15.70;;
68457;SDS011;65384;52.016;5.428;2022-11-21T06:26:43;97.80;;;14.65;;
68457;SDS011;65384;52.016;5.428;2022-11-21T06:29:09;86.88;;;13.60;;
68457;SDS011;65384;52.016;5.428;2022-11-21T06:31:35;108.20;;;15.25;;
68457;SDS011;65384;52.016;5.428;2022-11-21T06:34:01;159.73;;;16.52;;
68457;SDS011;65384;52.016;5.428;2022-11-21T06:36:26;128.75;;;16.20;;
68457;SDS011;65384;52.016;5.428;2022-11-21T06:38:52;109.72;;;14.25;;
68457;SDS011;65384;52.016;5.428;2022-11-21T06:41:19;138.43;;;15.60;;
68457;SDS011;65384;52.016;5.428;2022-11-21T06:43:46;94.28;;;14.57;;
68457;SDS011;65384;52.016;5.428;2022-11-21T06:46:12;79.00;;;14.50;;
68457;SDS011;65384;52.016;5.428;2022-11-21T06:48:38;75.55;;;14.18;;
68457;SDS011;65384;52.016;5.428;2022-11-21T06:51:04;50.55;;;14.65;;
68457;SDS011;65384;52.016;5.428;2022-11-21T06:53:31;49.55;;;13.68;;
68457;SDS011;65384;52.016;5.428;2022-11-21T06:55:57;51.25;;;13.32;;
68457;SDS011;65384;52.016;5.428;2022-11-21T06:58:23;42.70;;;12.23;;
68457;SDS011;65384;52.016;5.428;2022-11-21T07:00:49;44.47;;;12.43;;
68457;SDS011;65384;52.016;5.428;2022-11-21T07:03:14;44.65;;;13.82;;
68457;SDS011;65384;52.016;5.428;2022-11-21T07:05:39;44.45;;;13.38;;
68457;SDS011;65384;52.016;5.428;2022-11-21T07:08:05;46.33;;;13.35;;
68457;SDS011;65384;52.016;5.428;2022-11-21T07:10:30;48.22;;;13.05;;
68457;SDS011;65384;52.016;5.428;2022-11-21T07:12:56;45.30;;;12.65;;
68457;SDS011;65384;52.016;5.428;2022-11-21T07:15:41;39.60;;;11.85;;
68457;SDS011;65384;52.016;5.428;2022-11-21T07:18:06;41.45;;;12.55;;
68457;SDS011;65384;52.016;5.428;2022-11-21T07:20:32;45.15;;;13.30;;
68457;SDS011;65384;52.016;5.428;2022-11-21T07:22:57;43.45;;;11.95;;
68457;SDS011;65384;52.016;5.428;2022-11-21T07:25:22;47.40;;;13.13;;
68457;SDS011;65384;52.016;5.428;2022-11-21T07:27:48;43.17;;;12.35;;
68457;SDS011;65384;52.016;5.428;2022-11-21T07:30:13;47.40;;;13.70;;
68457;SDS011;65384;52.016;5.428;2022-11-21T07:32:39;50.70;;;13.73;;
68457;SDS011;65384;52.016;5.428;2022-11-21T07:35:04;45.20;;;13.73;;
68457;SDS011;65384;52.016;5.428;2022-11-21T07:37:30;51.28;;;14.32;;
68457;SDS011;65384;52.016;5.428;2022-11-21T07:39:56;46.75;;;14.55;;
68457;SDS011;65384;52.016;5.428;2022-11-21T07:42:21;55.70;;;15.10;;
68457;SDS011;65384;52.016;5.428;2022-11-21T07:44:46;46.67;;;14.80;;
68457;SDS011;65384;52.016;5.428;2022-11-21T07:47:11;47.83;;;13.75;;
68457;SDS011;65384;52.016;5.428;2022-11-21T07:49:37;54.08;;;15.00;;
68457;SDS011;65384;52.016;5.428;2022-11-21T07:52:02;54.00;;;14.20;;
68457;SDS011;65384;52.016;5.428;2022-11-21T07:54:28;51.75;;;15.23;;
68457;SDS011;65384;52.016;5.428;2022-11-21T07:56:53;54.53;;;15.02;;
68457;SDS011;65384;52.016;5.428;2022-11-21T07:59:18;43.05;;;12.15;;
68457;SDS011;65384;52.016;5.428;2022-11-21T08:01:44;60.33;;;15.38;;
68457;SDS011;65384;52.016;5.428;2022-11-21T08:04:09;67.30;;;15.10;;
68457;SDS011;65384;52.016;5.428;2022-11-21T08:06:34;57.85;;;16.30;;
68457;SDS011;65384;52.016;5.428;2022-11-21T08:09:00;72.68;;;16.20;;
68457;SDS011;65384;52.016;5.428;2022-11-21T08:11:25;75.00;;;16.13;;
68457;SDS011;65384;52.016;5.428;2022-11-21T08:13:50;60.45;;;14.82;;
68457;SDS011;65384;52.016;5.428;2022-11-21T08:16:16;92.15;;;16.45;;
68457;SDS011;65384;52.016;5.428;2022-11-21T08:18:41;89.45;;;16.33;;
68457;SDS011;65384;52.016;5.428;2022-11-21T08:21:06;76.97;;;15.85;;
68457;SDS011;65384;52.016;5.428;2022-11-21T08:23:32;157.30;;;17.77;;
68457;SDS011;65384;52.016;5.428;2022-11-21T08:25:59;104.28;;;16.02;;
68457;SDS011;65384;52.016;5.428;2022-11-21T08:28:24;126.47;;;16.98;;
68457;SDS011;65384;52.016;5.428;2022-11-21T08:30:50;193.27;;;17.77;;
68457;SDS011;65384;52.016;5.428;2022-11-21T08:33:15;177.05;;;17.65;;
68457;SDS011;65384;52.016;5.428;2022-11-21T08:35:40;97.25;;;16.35;;
68457;SDS011;65384;52.016;5.428;2022-11-21T08:38:06;118.10;;;16.10;;
68457;SDS011;65384;52.016;5.428;2022-11-21T08:40:32;144.63;;;17.70;;
68457;SDS011;65384;52.016;5.428;2022-11-21T08:43:02;108.22;;;14.82;;
68457;SDS011;65384;52.016;5.428;2022-11-21T08:45:32;114.60;;;16.90;;
68457;SDS011;65384;52.016;5.428;2022-11-21T08:47:59;140.32;;;17.90;;
68457;SDS011;65384;52.016;5.428;2022-11-21T08:50:24;122.20;;;16.83;;
68457;SDS011;65384;52.016;5.428;2022-11-21T08:52:50;75.35;;;16.08;;
68457;SDS011;65384;52.016;5.428;2022-11-21T08:55:16;67.05;;;14.82;;
68457;SDS011;65384;52.016;5.428;2022-11-21T08:57:41;83.43;;;15.38;;
68457;SDS011;65384;52.016;5.428;2022-11-21T09:00:07;67.97;;;15.40;;
68457;SDS011;65384;52.016;5.428;2022-11-21T09:02:34;67.82;;;14.75;;
68457;SDS011;65384;52.016;5.428;2022-11-21T09:04:59;59.47;;;15.18;;
68457;SDS011;65384;52.016;5.428;2022-11-21T09:07:24;63.00;;;14.98;;
68457;SDS011;65384;52.016;5.428;2022-11-21T09:09:50;54.28;;;14.13;;
68457;SDS011;65384;52.016;5.428;2022-11-21T09:12:15;55.33;;;14.40;;
68457;SDS011;65384;52.016;5.428;2022-11-21T09:14:41;54.45;;;14.57;;
68457;SDS011;65384;52.016;5.428;2022-11-21T09:17:25;45.80;;;14.48;;
68457;SDS011;65384;52.016;5.428;2022-11-21T09:20:13;50.95;;;14.57;;
68457;SDS011;65384;52.016;5.428;2022-11-21T09:22:38;44.70;;;14.07;;
68457;SDS011;65384;52.016;5.428;2022-11-21T09:25:04;51.08;;;15.30;;
68457;SDS011;65384;52.016;5.428;2022-11-21T09:27:29;44.08;;;13.68;;
68457;SDS011;65384;52.016;5.428;2022-11-21T09:29:55;47.33;;;14.63;;
68457;SDS011;65384;52.016;5.428;2022-11-21T09:32:20;50.67;;;15.55;;
68457;SDS011;65384;52.016;5.428;2022-11-21T09:34:46;45.75;;;14.20;;
68457;SDS011;65384;52.016;5.428;2022-11-21T09:37:11;56.78;;;15.25;;
68457;SDS011;65384;52.016;5.428;2022-11-21T09:39:36;59.70;;;15.20;;
68457;SDS011;65384;52.016;5.428;2022-11-21T09:42:06;55.17;;;14.73;;
68457;SDS011;65384;52.016;5.428;2022-11-21T09:44:46;60.78;;;15.48;;
68457;SDS011;65384;52.016;5.428;2022-11-21T09:49:51;59.33;;;14.45;;
68457;SDS011;65384;52.016;5.428;2022-11-21T09:52:20;60.15;;;15.18;;
68457;SDS011;65384;52.016;5.428;2022-11-21T09:54:51;47.08;;;15.00;;
68457;SDS011;65384;52.016;5.428;2022-11-21T09:57:20;53.60;;;15.73;;
68457;SDS011;65384;52.016;5.428;2022-11-21T09:59:47;42.83;;;14.48;;
68457;SDS011;65384;52.016;5.428;2022-11-21T10:02:14;57.08;;;15.57;;
68457;SDS011;65384;52.016;5.428;2022-11-21T10:04:42;51.30;;;14.10;;
68457;SDS011;65384;52.016;5.428;2022-11-21T10:26:00;53.38;;;17.90;;
68457;SDS011;65384;52.016;5.428;2022-11-21T10:31:03;53.05;;;16.27;;
68457;SDS011;65384;52.016;5.428;2022-11-21T10:33:33;53.72;;;17.50;;
68457;SDS011;65384;52.016;5.428;2022-11-21T10:38:51;49.30;;;16.42;;
68457;SDS011;65384;52.016;5.428;2022-11-21T10:44:24;50.58;;;16.88;;
68457;SDS011;65384;52.016;5.428;2022-11-21T10:49:54;47.67;;;16.27;;
68457;SDS011;65384;52.016;5.428;2022-11-21T10:52:24;46.00;;;16.23;;
68457;SDS011;65384;52.016;5.428;2022-11-21T10:57:27;47.15;;;16.27;;
68457;SDS011;65384;52.016;5.428;2022-11-21T11:02:24;49.08;;;16.67;;
68457;SDS011;65384;52.016;5.428;2022-11-21T11:05:15;43.35;;;16.27;;
68457;SDS011;65384;52.016;5.428;2022-11-21T11:07:41;47.38;;;16.17;;
68457;SDS011;65384;52.016;5.428;2022-11-21T11:10:14;47.25;;;16.45;;
68457;SDS011;65384;52.016;5.428;2022-11-21T11:12:47;45.83;;;16.00;;
68457;SDS011;65384;52.016;5.428;2022-11-21T11:15:31;45.33;;;17.05;;
68457;SDS011;65384;52.016;5.428;2022-11-21T11:17:58;55.85;;;18.23;;
68457;SDS011;65384;52.016;5.428;2022-11-21T11:22:54;43.05;;;15.50;;
68457;SDS011;65384;52.016;5.428;2022-11-21T11:25:20;40.55;;;14.73;;
68457;SDS011;65384;52.016;5.428;2022-11-21T11:27:46;37.67;;;15.30;;
68457;SDS011;65384;52.016;5.428;2022-11-21T11:30:17;37.17;;;14.32;;
68457;SDS011;65384;52.016;5.428;2022-11-21T11:32:43;36.03;;;14.95;;
68457;SDS011;65384;52.016;5.428;2022-11-21T11:37:38;30.77;;;14.02;;
68457;SDS011;65384;52.016;5.428;2022-11-21T11:49:18;22.52;;;9.40;;
68457;SDS011;65384;52.016;5.428;2022-11-21T11:51:52;20.85;;;8.75;;
68457;SDS011;65384;52.016;5.428;2022-11-21T11:54:23;21.88;;;8.68;;
68457;SDS011;65384;52.016;5.428;2022-11-21T11:56:50;25.17;;;9.35;;
68457;SDS011;65384;52.016;5.428;2022-11-21T12:04:27;16.65;;;7.55;;
68457;SDS011;65384;52.016;5.428;2022-11-21T12:07:01;18.48;;;7.55;;
68457;SDS011;65384;52.016;5.428;2022-11-21T12:09:45;14.13;;;7.00;;
68457;SDS011;65384;52.016;5.428;2022-11-21T12:18:19;16.75;;;5.80;;
68457;SDS011;65384;52.016;5.428;2022-11-21T12:20:57;14.60;;;5.50;;
68457;SDS011;65384;52.016;5.428;2022-11-21T12:23:35;9.70;;;4.35;;
68457;SDS011;65384;52.016;5.428;2022-11-21T12:26:12;10.77;;;4.40;;
68457;SDS011;65384;52.016;5.428;2022-11-21T12:34:20;11.45;;;4.40;;
68457;SDS011;65384;52.016;5.428;2022-11-21T12:50:54;8.32;;;3.95;;
68457;SDS011;65384;52.016;5.428;2022-11-21T12:57:12;14.27;;;4.32;;
68457;SDS011;65384;52.016;5.428;2022-11-21T13:05:22;9.18;;;4.30;;
68457;SDS011;65384;52.016;5.428;2022-11-21T13:07:52;9.85;;;4.20;;
68457;SDS011;65384;52.016;5.428;2022-11-21T13:10:21;8.30;;;4.50;;
68457;SDS011;65384;52.016;5.428;2022-11-21T13:12:48;8.35;;;4.28;;
68457;SDS011;65384;52.016;5.428;2022-11-21T13:15:28;10.60;;;3.88;;
68457;SDS011;65384;52.016;5.428;2022-11-21T13:17:57;13.88;;;4.18;;
68457;SDS011;65384;52.016;5.428;2022-11-21T13:20:37;12.77;;;3.95;;
68457;SDS011;65384;52.016;5.428;2022-11-21T13:23:06;11.85;;;4.95;;
68457;SDS011;65384;52.016;5.428;2022-11-21T13:25:59;9.82;;;4.13;;
68457;SDS011;65384;52.016;5.428;2022-11-21T13:28:31;12.88;;;4.45;;
68457;SDS011;65384;52.016;5.428;2022-11-21T13:30:58;13.07;;;4.97;;
68457;SDS011;65384;52.016;5.428;2022-11-21T13:36:04;15.93;;;5.05;;
68457;SDS011;65384;52.016;5.428;2022-11-21T13:41:57;10.20;;;4.20;;
68457;SDS011;65384;52.016;5.428;2022-11-21T13:46:57;13.18;;;4.53;;
68457;SDS011;65384;52.016;5.428;2022-11-21T13:49:23;12.52;;;4.65;;
68457;SDS011;65384;52.016;5.428;2022-11-21T13:52:21;15.85;;;5.00;;
68457;SDS011;65384;52.016;5.428;2022-11-21T14:00:27;11.50;;;4.97;;
68457;SDS011;65384;52.016;5.428;2022-11-21T14:05:38;13.38;;;4.70;;
68457;SDS011;65384;52.016;5.428;2022-11-21T14:08:18;13.68;;;5.30;;
68457;SDS011;65384;52.016;5.428;2022-11-21T14:10:46;12.27;;;5.32;;
68457;SDS011;65384;52.016;5.428;2022-11-21T14:18:43;17.77;;;5.47;;
68457;SDS011;65384;52.016;5.428;2022-11-21T14:21:17;13.13;;;5.13;;
68457;SDS011;65384;52.016;5.428;2022-11-21T14:23:45;11.90;;;5.15;;
68457;SDS011;65384;52.016;5.428;2022-11-21T14:26:13;14.32;;;5.90;;
68457;SDS011;65384;52.016;5.428;2022-11-21T14:28:41;21.10;;;5.50;;
68457;SDS011;65384;52.016;5.428;2022-11-21T14:31:07;12.35;;;5.78;;
68457;SDS011;65384;52.016;5.428;2022-11-21T14:33:35;14.43;;;5.97;;
68457;SDS011;65384;52.016;5.428;2022-11-21T14:36:05;13.43;;;6.07;;
68457;SDS011;65384;52.016;5.428;2022-11-21T14:38:34;15.45;;;6.40;;
68457;SDS011;65384;52.016;5.428;2022-11-21T14:46:23;17.52;;;6.97;;
68457;SDS011;65384;52.016;5.428;2022-11-21T14:48:49;16.25;;;7.25;;
68457;SDS011;65384;52.016;5.428;2022-11-21T14:51:16;13.80;;;6.60;;
68457;SDS011;65384;52.016;5.428;2022-11-21T14:53:43;14.95;;;6.70;;
68457;SDS011;65384;52.016;5.428;2022-11-21T14:56:11;17.02;;;6.78;;
68457;SDS011;65384;52.016;5.428;2022-11-21T14:58:44;19.50;;;7.50;;
68457;SDS011;65384;52.016;5.428;2022-11-21T15:01:20;17.02;;;7.07;;
68457;SDS011;65384;52.016;5.428;2022-11-21T15:03:59;16.08;;;5.80;;
68457;SDS011;65384;52.016;5.428;2022-11-21T15:06:26;18.20;;;7.03;;
68457;SDS011;65384;52.016;5.428;2022-11-21T15:08:53;15.00;;;6.22;;
68457;SDS011;65384;52.016;5.428;2022-11-21T15:11:21;16.70;;;6.32;;
68457;SDS011;65384;52.016;5.428;2022-11-21T15:13:49;14.65;;;5.75;;
68457;SDS011;65384;52.016;5.428;2022-11-21T15:16:18;17.88;;;5.72;;
68457;SDS011;65384;52.016;5.428;2022-11-21T15:18:46;13.93;;;4.95;;
68457;SDS011;65384;52.016;5.428;2022-11-21T15:21:12;16.70;;;6.72;;
68457;SDS011;65384;52.016;5.428;2022-11-21T15:23:38;19.40;;;5.95;;
68457;SDS011;65384;52.016;5.428;2022-11-21T15:26:23;17.60;;;5.50;;
68457;SDS011;65384;52.016;5.428;2022-11-21T15:28:56;19.83;;;6.32;;
68457;SDS011;65384;52.016;5.428;2022-11-21T15:31:22;14.02;;;5.60;;
68457;SDS011;65384;52.016;5.428;2022-11-21T15:34:01;11.25;;;4.60;;
68457;SDS011;65384;52.016;5.428;2022-11-21T15:36:28;13.95;;;4.78;;
68457;SDS011;65384;52.016;5.428;2022-11-21T15:46:30;13.45;;;4.88;;
68457;SDS011;65384;52.016;5.428;2022-11-21T15:49:00;22.75;;;5.25;;
68457;SDS011;65384;52.016;5.428;2022-11-21T15:51:31;14.25;;;4.82;;
68457;SDS011;65384;52.016;5.428;2022-11-21T15:53:58;13.38;;;5.22;;
68457;SDS011;65384;52.016;5.428;2022-11-21T15:56:24;16.42;;;5.60;;
68457;SDS011;65384;52.016;5.428;2022-11-21T15:58:49;13.07;;;5.00;;
68457;SDS011;65384;52.016;5.428;2022-11-21T16:01:16;13.80;;;4.78;;
68457;SDS011;65384;52.016;5.428;2022-11-21T16:03:43;10.52;;;4.90;;
68457;SDS011;65384;52.016;5.428;2022-11-21T16:06:09;11.48;;;5.05;;
68457;SDS011;65384;52.016;5.428;2022-11-21T16:08:34;11.95;;;5.75;;
68457;SDS011;65384;52.016;5.428;2022-11-21T16:11:00;18.55;;;6.22;;
68457;SDS011;65384;52.016;5.428;2022-11-21T16:13:25;19.65;;;7.47;;
68457;SDS011;65384;52.016;5.428;2022-11-21T16:15:51;16.27;;;6.70;;
68457;SDS011;65384;52.016;5.428;2022-11-21T16:18:16;10.98;;;5.20;;
68457;SDS011;65384;52.016;5.428;2022-11-21T16:20:41;10.98;;;4.82;;
68457;SDS011;65384;52.016;5.428;2022-11-21T16:23:08;12.23;;;4.55;;
68457;SDS011;65384;52.016;5.428;2022-11-21T16:25:34;13.13;;;3.95;;
68457;SDS011;65384;52.016;5.428;2022-11-21T16:28:00;11.80;;;4.80;;
68457;SDS011;65384;52.016;5.428;2022-11-21T16:30:25;15.88;;;4.55;;
68457;SDS011;65384;52.016;5.428;2022-11-21T16:32:51;13.15;;;4.38;;
68457;SDS011;65384;52.016;5.428;2022-11-21T16:35:19;12.02;;;4.85;;